Search for airport 
image banner adimage banner adimage banner ad
image banner ad

1O2 - Lampson Field

Located in Lakeport, United States

ICAO - 1O2, IATA -

Data provided by Airmate  

General information

Coordinates: N38°59'26" W122°54'3"
Elevation is 1380 feet MSL.
Magnetic variation is 16° East
View others Airports in California

Operational data

Special qualification required
Current time UTC:
Current local time:
Weather at : KUKI - Ukiah Muni ( 30 km )
METAR: KUKI 150956Z AUTO 00000KT 10SM CLR 12/07 A3010 RMK AO2 SLP187 T01220072
TAF: KUKI 150538Z 1506/1606 36005KT P6SM FEW250 FM151800 33010KT P6SM SKC FM160300 01007KT P6SM SKC
View NOTAMs / SUP AIP / TFR affecting this airport [VIEW]
Communications frequencies: [VIEW]

Runways:

RWY identifierQFULength (ft)Width (ft)SurfaceLDA (ft)
10119°360060ASPH
28299°360060ASPH

Airport contact information

Address: Lakeport United States

Satellite view of 1O2